San Jose (SJC/KSJC)

Information

Location
San Jose, CA
Local Time
06:15 / 6:15 am
GMT Time
14:15 / 2:15 pm
Gates
Unassigned
No FAA reported delays
METAR KSJC 221353Z 11019G27KT 3SM RA BR FEW005 BKN036 OVC050 10/08 A2972 RMK AO2 PK WND 11028/1325 SLP063 P0010 T01000078
TAF KSJC 221130Z 2212/2312 13020G30KT 6SM -RA OVC030 WS020/15050KT FM221400 13017G25KT 6SM -RA OVC030 FM221700 14010KT P6SM -SHRA OVC050 FM230300 23008KT P6SM -SHRA BKN050
  • No charts available